createdAt,value
2018-05-18T00:01:44.328Z,7.10
2018-05-18T00:04:13.432Z,6.33
2018-05-18T00:06:42.930Z,5.80
2018-05-18T00:09:14.094Z,5.93
2018-05-18T00:11:42.750Z,6.00
2018-05-18T00:14:12.691Z,5.93
2018-05-18T00:16:40.488Z,5.93
2018-05-18T00:19:15.864Z,6.20
2018-05-18T00:21:48.229Z,6.30
2018-05-18T00:24:33.535Z,5.63
2018-05-18T00:27:03.184Z,5.57
2018-05-18T00:29:31.839Z,5.97
2018-05-18T00:32:03.309Z,5.90
2018-05-18T00:34:38.687Z,6.03
2018-05-18T00:37:10.736Z,5.43
2018-05-18T00:39:42.555Z,6.03
2018-05-18T00:42:18.005Z,5.73
2018-05-18T00:44:45.736Z,5.70
2018-05-18T00:47:28.432Z,6.23
2018-05-18T00:50:01.894Z,6.00
2018-05-18T00:52:33.660Z,5.43
2018-05-18T00:55:15.000Z,5.30
2018-05-18T00:57:43.918Z,6.20
2018-05-18T01:00:21.515Z,6.07
2018-05-18T01:02:49.345Z,5.53
2018-05-18T01:05:18.892Z,5.40
2018-05-18T01:07:49.932Z,5.67
2018-05-18T01:10:18.433Z,4.90
2018-05-18T01:12:54.217Z,4.83
2018-05-18T01:15:22.944Z,5.50
2018-05-18T01:17:51.534Z,5.17
2018-05-18T01:20:19.569Z,5.17
2018-05-18T01:22:48.010Z,5.70
2018-05-18T01:25:22.793Z,5.10
2018-05-18T01:27:50.296Z,5.60
2018-05-18T01:30:18.998Z,5.10
2018-05-18T01:36:05.680Z,5.00
2018-05-18T01:41:31.744Z,4.80
2018-05-18T01:43:59.492Z,4.93
2018-05-18T01:46:34.033Z,4.90
2018-05-18T01:49:20.930Z,5.13
2018-05-18T01:51:49.805Z,4.67
2018-05-18T01:54:29.246Z,5.77
2018-05-18T01:56:56.804Z,5.07
2018-05-18T01:59:25.468Z,5.30
2018-05-18T02:01:59.148Z,5.27
2018-05-18T02:04:27.029Z,5.23
2018-05-18T02:07:04.602Z,4.77
2018-05-18T02:12:27.901Z,5.43
2018-05-18T02:14:56.899Z,5.10
2018-05-18T02:17:48.957Z,4.70
2018-05-18T02:20:25.628Z,5.13
2018-05-18T02:22:59.260Z,5.47
2018-05-18T02:25:31.926Z,5.30
2018-05-18T02:30:47.473Z,5.47
2018-05-18T02:33:18.618Z,5.50
2018-05-18T02:35:58.805Z,5.50
2018-05-18T02:38:41.828Z,5.17
2018-05-18T02:41:15.338Z,5.70
2018-05-18T02:46:39.730Z,5.83
2018-05-18T02:49:08.444Z,4.83
2018-05-18T02:51:36.180Z,5.17
2018-05-18T02:54:05.768Z,5.50
2018-05-18T02:56:37.560Z,5.80
2018-05-18T02:59:09.182Z,5.10
2018-05-18T03:01:47.183Z,5.00
2018-05-18T03:04:16.735Z,6.17
2018-05-18T03:06:48.972Z,5.33
2018-05-18T03:09:30.903Z,5.63
2018-05-18T03:11:58.546Z,6.30
2018-05-18T03:14:37.204Z,6.13
2018-05-18T03:17:21.614Z,5.83
2018-05-18T03:19:49.189Z,6.13
2018-05-18T03:22:17.835Z,6.50
2018-05-18T03:24:46.547Z,5.87
2018-05-18T03:27:14.045Z,5.63
2018-05-18T03:29:52.807Z,5.60
2018-05-18T03:32:21.517Z,5.83
2018-05-18T03:34:54.517Z,5.60
2018-05-18T03:37:23.173Z,6.50
2018-05-18T03:39:52.785Z,6.57
2018-05-18T03:42:37.737Z,6.27
2018-05-18T03:47:37.015Z,7.00
2018-05-18T03:50:04.973Z,6.87
2018-05-18T03:52:33.419Z,5.63
2018-05-18T03:55:03.058Z,6.17
2018-05-18T03:57:33.245Z,7.40
2018-05-18T04:00:05.914Z,6.70
2018-05-18T04:02:49.565Z,6.20
2018-05-18T04:05:30.841Z,6.23
2018-05-18T04:08:10.116Z,5.87
2018-05-18T04:10:51.113Z,7.13
2018-05-18T04:13:23.776Z,6.30
2018-05-18T04:16:01.356Z,5.73
2018-05-18T04:18:35.673Z,6.30
2018-05-18T04:21:03.564Z,6.50
2018-05-18T04:23:36.219Z,6.07
2018-05-18T04:26:09.046Z,6.93
2018-05-18T04:28:41.378Z,6.10
2018-05-18T04:31:11.201Z,6.20
2018-05-18T04:33:51.901Z,5.87
2018-05-18T04:36:24.339Z,5.73
2018-05-18T04:38:57.575Z,6.40
2018-05-18T04:41:29.723Z,7.13
2018-05-18T04:44:01.561Z,7.20
2018-05-18T04:46:30.165Z,5.87
2018-05-18T04:48:57.662Z,6.60
2018-05-18T04:51:33.256Z,6.33
2018-05-18T04:54:12.140Z,5.97
2018-05-18T04:56:43.342Z,6.27
2018-05-18T04:59:11.079Z,6.97
2018-05-18T05:02:03.305Z,5.97
2018-05-18T05:04:31.822Z,7.77
2018-05-18T05:07:02.157Z,6.27
2018-05-18T05:09:32.560Z,6.20
2018-05-18T05:12:02.235Z,6.60
2018-05-18T05:14:33.000Z,6.47
2018-05-18T05:17:19.157Z,6.30
2018-05-18T05:19:48.829Z,6.50
2018-05-18T05:22:20.676Z,5.90
2018-05-18T05:24:50.170Z,6.67
2018-05-18T05:27:24.029Z,6.37
2018-05-18T05:29:55.577Z,6.90
2018-05-18T05:35:02.498Z,6.80
2018-05-18T05:37:30.401Z,7.00
2018-05-18T05:42:44.921Z,6.47
2018-05-18T05:45:16.976Z,6.67
2018-05-18T05:47:46.498Z,6.70
2018-05-18T05:50:15.271Z,6.57
2018-05-18T05:55:22.422Z,6.43
2018-05-18T05:57:58.638Z,6.53
2018-05-18T06:00:31.801Z,6.60
2018-05-18T06:02:59.533Z,5.97
2018-05-18T06:05:28.263Z,6.60
2018-05-18T06:07:59.532Z,7.43
2018-05-18T06:10:29.839Z,6.47
2018-05-18T06:12:57.352Z,5.70
2018-05-18T06:15:25.069Z,6.50
2018-05-18T06:17:52.575Z,6.53
2018-05-18T06:20:20.297Z,5.20
2018-05-18T06:23:01.491Z,6.33
2018-05-18T06:25:29.967Z,6.00
2018-05-18T06:27:59.549Z,6.20
2018-05-18T06:30:29.190Z,5.63
2018-05-18T06:33:15.615Z,5.93
2018-05-18T06:35:44.066Z,6.10
2018-05-18T06:38:13.748Z,6.53
2018-05-18T06:40:41.666Z,5.97
2018-05-18T06:43:09.245Z,6.30
2018-05-18T06:45:40.340Z,5.87
2018-05-18T06:51:00.972Z,5.17
2018-05-18T06:53:28.545Z,5.03
2018-05-18T06:55:56.303Z,5.20
2018-05-18T06:58:29.587Z,5.00
2018-05-18T07:01:09.355Z,5.30
2018-05-18T07:03:52.127Z,5.60
2018-05-18T07:06:39.619Z,4.80
2018-05-18T07:09:18.079Z,5.30
2018-05-18T07:11:45.607Z,4.93
2018-05-18T07:14:13.121Z,5.20
2018-05-18T07:16:40.871Z,5.50
2018-05-18T07:19:23.711Z,5.23
2018-05-18T07:22:22.282Z,4.70
2018-05-18T07:24:58.703Z,5.10
2018-05-18T07:27:38.499Z,5.20
2018-05-18T07:30:20.133Z,5.33
2018-05-18T07:32:56.467Z,4.87
2018-05-18T07:35:36.573Z,5.50
2018-05-18T07:38:12.011Z,5.43
2018-05-18T07:43:35.423Z,4.53
2018-05-18T07:46:04.246Z,5.10
2018-05-18T07:48:33.020Z,5.03
2018-05-18T07:51:01.559Z,5.47
2018-05-18T07:53:32.321Z,5.07
2018-05-18T07:56:04.097Z,5.40
2018-05-18T07:58:32.780Z,5.33
2018-05-18T08:01:03.205Z,5.67
2018-05-18T08:03:31.023Z,5.43
2018-05-18T08:06:01.505Z,5.30
2018-05-18T08:08:39.429Z,5.70
2018-05-18T08:11:28.107Z,5.90
2018-05-18T08:14:16.343Z,6.00
2018-05-18T08:17:01.191Z,6.57
2018-05-18T08:19:30.223Z,7.27
2018-05-18T08:22:04.049Z,7.00
2018-05-18T08:24:37.135Z,7.20
2018-05-18T08:27:22.507Z,7.07
2018-05-18T08:29:53.196Z,7.37
2018-05-18T08:32:26.779Z,7.10
2018-05-18T08:34:59.965Z,6.50
2018-05-18T08:37:39.707Z,6.70
2018-05-18T08:40:07.882Z,6.87
2018-05-18T08:42:36.582Z,6.53
2018-05-18T08:45:12.016Z,7.80
2018-05-18T08:47:54.165Z,7.17
2018-05-18T08:50:25.579Z,6.33
2018-05-18T08:52:53.135Z,6.87
2018-05-18T08:55:22.583Z,6.40
2018-05-18T08:57:52.097Z,7.13
2018-05-18T09:00:19.827Z,6.90
2018-05-18T09:05:40.866Z,6.33
2018-05-18T09:08:13.838Z,6.37
2018-05-18T09:10:53.989Z,6.03
2018-05-18T09:13:25.716Z,6.40
2018-05-18T09:15:57.127Z,6.13
2018-05-18T09:18:30.722Z,6.77
2018-05-18T09:20:58.282Z,5.93
2018-05-18T09:23:26.047Z,6.63
2018-05-18T09:26:06.836Z,6.67
2018-05-18T09:28:38.663Z,6.70
2018-05-18T09:31:09.053Z,8.00
2018-05-18T09:33:49.577Z,8.27
2018-05-18T09:39:12.482Z,7.60
2018-05-18T09:41:41.417Z,7.50
2018-05-18T09:44:11.316Z,7.40
2018-05-18T09:46:39.572Z,7.50
2018-05-18T09:51:58.689Z,8.27
2018-05-18T09:54:27.537Z,8.73
2018-05-18T09:59:38.610Z,9.50
2018-05-18T10:02:06.370Z,9.47
2018-05-18T10:04:35.098Z,10.17
2018-05-18T10:07:03.836Z,11.10
2018-05-18T10:09:33.857Z,10.90
2018-05-18T10:12:04.500Z,11.73
2018-05-18T10:14:51.999Z,11.17
2018-05-18T10:17:19.599Z,11.07
2018-05-18T10:19:55.792Z,11.87
2018-05-18T10:22:23.653Z,10.33
2018-05-18T10:24:52.317Z,11.23
2018-05-18T10:27:30.963Z,10.10
2018-05-18T10:30:06.357Z,10.27
2018-05-18T10:32:51.279Z,10.53
2018-05-18T10:35:27.409Z,10.00
2018-05-18T10:38:05.551Z,9.63
2018-05-18T10:40:33.410Z,10.20
2018-05-18T10:43:13.522Z,10.30
2018-05-18T10:48:47.337Z,10.00
2018-05-18T10:51:20.207Z,9.40
2018-05-18T10:53:48.555Z,8.50
2018-05-18T10:56:41.733Z,8.60
2018-05-18T10:59:12.922Z,8.87
2018-05-18T11:01:42.667Z,7.80
2018-05-18T11:04:26.083Z,8.27
2018-05-18T11:07:07.633Z,7.80
2018-05-18T11:15:12.599Z,8.23
2018-05-18T11:17:43.906Z,8.07
2018-05-18T11:20:12.732Z,7.70
2018-05-18T11:22:50.831Z,7.27
2018-05-18T11:25:37.874Z,6.90
2018-05-18T11:28:06.337Z,7.00
2018-05-18T11:30:42.313Z,7.53
2018-05-18T11:33:13.390Z,7.97
2018-05-18T11:35:57.278Z,7.57
2018-05-18T11:38:37.191Z,7.73
2018-05-18T11:41:04.926Z,7.30
2018-05-18T11:43:43.947Z,7.03
2018-05-18T11:49:00.845Z,8.13
2018-05-18T11:51:43.266Z,7.07
2018-05-18T11:54:20.424Z,7.03
2018-05-18T11:56:49.316Z,6.93
2018-05-18T11:59:19.409Z,6.83
2018-05-18T12:01:53.628Z,7.10
2018-05-18T12:04:23.301Z,7.10
2018-05-18T12:06:57.560Z,6.90
2018-05-18T12:09:35.463Z,7.43
2018-05-18T12:12:09.567Z,7.47
2018-05-18T12:17:21.169Z,8.23
2018-05-18T12:19:54.552Z,7.33
2018-05-18T12:27:57.799Z,9.23
2018-05-18T12:30:40.508Z,7.50
2018-05-18T12:37:31.724Z,7.83
2018-05-18T12:40:06.010Z,8.53
2018-05-18T12:42:40.444Z,9.27
2018-05-18T12:48:05.539Z,8.67
2018-05-18T12:50:48.848Z,8.90
2018-05-18T12:53:30.920Z,11.87
2018-05-18T12:56:03.804Z,9.47
2018-05-18T13:01:38.200Z,10.17
2018-05-18T13:04:10.238Z,9.50
2018-05-18T13:06:41.496Z,9.70
2018-05-18T13:12:15.631Z,9.23
2018-05-18T13:14:47.176Z,8.97
2018-05-18T13:24:30.315Z,10.67
2018-05-18T13:43:35.622Z,9.77
2018-05-18T13:48:54.764Z,10.03
2018-05-18T13:54:31.451Z,9.73
2018-05-18T13:57:10.123Z,9.40
2018-05-18T13:59:48.083Z,10.97
2018-05-18T14:02:21.814Z,11.20
2018-05-18T14:04:50.545Z,11.23
2018-05-18T14:07:22.229Z,10.83
2018-05-18T14:10:04.135Z,11.70
2018-05-18T14:12:38.111Z,10.90
2018-05-18T14:15:05.895Z,12.30
2018-05-18T14:17:34.129Z,12.73
2018-05-18T14:20:03.856Z,12.60
2018-05-18T14:22:35.923Z,13.60
2018-05-18T14:25:03.451Z,12.43
2018-05-18T14:27:37.953Z,11.57
2018-05-18T14:30:06.631Z,12.63
2018-05-18T14:32:38.049Z,11.10
2018-05-18T14:35:06.337Z,11.67
2018-05-18T14:37:42.911Z,10.03
2018-05-18T14:40:15.795Z,9.50
2018-05-18T14:42:45.094Z,9.37
2018-05-18T14:45:12.585Z,9.40
2018-05-18T14:47:43.151Z,9.60
2018-05-18T14:50:14.304Z,11.03
2018-05-18T14:52:53.327Z,9.43
2018-05-18T14:55:25.291Z,10.30
2018-05-18T14:57:59.242Z,11.93
2018-05-18T15:00:27.973Z,12.43
2018-05-18T15:02:58.759Z,11.93
2018-05-18T15:05:30.912Z,11.47
2018-05-18T15:08:00.858Z,11.07
2018-05-18T15:10:28.510Z,11.37
2018-05-18T15:12:57.291Z,11.03
2018-05-18T15:15:26.974Z,10.53
2018-05-18T15:18:08.131Z,10.27
2018-05-18T15:20:46.797Z,9.40
2018-05-18T15:23:17.317Z,9.83
2018-05-18T15:25:47.159Z,11.90
2018-05-18T15:28:14.927Z,11.73
2018-05-18T15:30:42.763Z,11.43
2018-05-18T15:33:13.963Z,11.07
2018-05-18T15:35:46.693Z,12.30
2018-05-18T15:38:20.539Z,12.17
2018-05-18T15:40:57.964Z,11.33
2018-05-18T15:43:26.013Z,11.47
2018-05-18T15:45:54.515Z,12.57
2018-05-18T15:48:22.217Z,11.60
2018-05-18T15:50:51.651Z,11.87
2018-05-18T15:53:21.134Z,11.67
2018-05-18T15:55:49.881Z,11.73
2018-05-18T15:58:21.417Z,11.40
2018-05-18T16:00:49.047Z,10.83
2018-05-18T16:03:23.455Z,10.90
2018-05-18T16:05:54.599Z,11.97
2018-05-18T16:08:25.544Z,13.13
2018-05-18T16:10:53.334Z,12.60
2018-05-18T16:13:21.084Z,11.87
2018-05-18T16:15:48.629Z,11.77
2018-05-18T16:18:16.154Z,11.93
2018-05-18T16:20:43.764Z,12.30
2018-05-18T16:23:31.353Z,11.77
2018-05-18T16:26:00.805Z,12.53
2018-05-18T16:28:28.595Z,11.73
2018-05-18T16:30:56.740Z,11.83
2018-05-18T16:33:25.103Z,11.23
2018-05-18T16:35:57.686Z,11.37
2018-05-18T16:38:27.225Z,10.30
2018-05-18T16:40:54.743Z,11.07
2018-05-18T16:43:22.299Z,10.93
2018-05-18T16:45:56.559Z,11.10
2018-05-18T16:48:27.931Z,11.13
2018-05-18T16:50:56.013Z,10.67
2018-05-18T16:53:23.698Z,11.00
2018-05-18T16:55:51.205Z,11.53
2018-05-18T16:58:22.715Z,11.07
2018-05-18T17:00:55.073Z,10.97
2018-05-18T17:03:24.651Z,10.37
2018-05-18T17:05:53.281Z,10.60
2018-05-18T17:08:20.789Z,10.03
2018-05-18T17:10:49.461Z,10.13
2018-05-18T17:13:16.965Z,9.70
2018-05-18T17:15:47.753Z,11.50
2018-05-18T17:18:16.444Z,10.00
2018-05-18T17:20:45.217Z,10.13
2018-05-18T17:23:16.916Z,9.53
2018-05-18T17:25:46.503Z,10.77
2018-05-18T17:28:16.109Z,9.97
2018-05-18T17:30:48.161Z,10.40
2018-05-18T17:33:15.686Z,10.37
2018-05-18T17:35:47.319Z,10.60
2018-05-18T17:38:16.738Z,10.43
2018-05-18T17:40:47.343Z,11.17
2018-05-18T17:43:16.813Z,11.00
2018-05-18T17:45:47.376Z,10.70
2018-05-18T17:48:22.420Z,10.73
2018-05-18T17:50:53.288Z,10.33
2018-05-18T17:53:24.181Z,9.90
2018-05-18T17:55:57.745Z,9.87
2018-05-18T17:58:29.579Z,10.67
2018-05-18T18:00:57.088Z,9.80
2018-05-18T18:03:27.205Z,9.57
2018-05-18T18:05:56.618Z,9.20
2018-05-18T18:08:26.930Z,9.10
2018-05-18T18:10:55.667Z,8.43
2018-05-18T18:13:24.587Z,8.70
2018-05-18T18:18:50.419Z,8.90
2018-05-18T18:21:19.895Z,8.70
2018-05-18T18:24:05.409Z,8.83
2018-05-18T18:26:40.065Z,7.87
2018-05-18T18:29:08.032Z,8.60
2018-05-18T18:31:41.113Z,8.40
2018-05-18T18:34:16.372Z,8.57
2018-05-18T18:36:48.404Z,8.07
2018-05-18T18:39:18.130Z,8.70
2018-05-18T18:44:38.476Z,8.33
2018-05-18T18:47:12.000Z,8.10
2018-05-18T18:49:44.848Z,8.30
2018-05-18T18:52:17.527Z,8.13
2018-05-18T18:54:55.891Z,7.67
2018-05-18T19:00:15.644Z,8.20
2018-05-18T19:02:49.329Z,8.53
2018-05-18T19:05:27.124Z,7.87
2018-05-18T19:08:04.715Z,8.57
2018-05-18T19:10:33.404Z,8.30
2018-05-18T19:13:05.037Z,8.40
2018-05-18T19:15:33.649Z,8.33
2018-05-18T19:18:04.208Z,7.90
2018-05-18T19:20:34.111Z,7.73
2018-05-18T19:23:14.376Z,7.63
2018-05-18T19:25:42.195Z,8.43
2018-05-18T19:33:47.237Z,7.77
2018-05-18T19:36:15.559Z,8.83
2018-05-18T19:38:45.905Z,8.27
2018-05-18T19:41:13.482Z,8.17
2018-05-18T19:43:42.128Z,7.93
2018-05-18T19:46:09.743Z,8.03
2018-05-18T19:48:41.222Z,8.87
2018-05-18T19:53:43.231Z,8.63
2018-05-18T19:56:11.322Z,8.50
2018-05-18T19:58:47.943Z,8.07
2018-05-18T20:01:16.185Z,9.10
2018-05-18T20:03:57.570Z,8.30
2018-05-18T20:06:25.123Z,8.03
2018-05-18T20:08:53.740Z,8.70
2018-05-18T20:11:24.941Z,8.67
2018-05-18T20:13:57.712Z,8.67
2018-05-18T20:16:30.600Z,10.33
2018-05-18T20:19:14.515Z,9.80
2018-05-18T20:21:42.449Z,8.93
2018-05-18T22:53:26.369Z,9.33
2018-05-18T22:56:02.727Z,10.63
2018-05-18T23:15:49.564Z,10.60
2018-05-18T23:27:01.434Z,11.23
2018-05-18T23:55:56.216Z,10.93
